sensor_id;sensor_type;location;lat;lon;timestamp;temperature;humidity
2889;DHT22;1453;42.708;23.282;2022-11-14T00:00:40;6.10;99.90
2889;DHT22;1453;42.708;23.282;2022-11-14T00:03:07;6.10;99.90
2889;DHT22;1453;42.708;23.282;2022-11-14T00:05:39;6.10;99.90
2889;DHT22;1453;42.708;23.282;2022-11-14T00:08:05;5.90;99.90
2889;DHT22;1453;42.708;23.282;2022-11-14T00:10:32;5.70;99.90
2889;DHT22;1453;42.708;23.282;2022-11-14T00:12:57;5.70;99.90
2889;DHT22;1453;42.708;23.282;2022-11-14T00:15:23;5.70;99.90
2889;DHT22;1453;42.708;23.282;2022-11-14T00:17:49;5.70;99.90
2889;DHT22;1453;42.708;23.282;2022-11-14T00:20:15;5.70;99.90
2889;DHT22;1453;42.708;23.282;2022-11-14T00:22:40;5.60;99.90
2889;DHT22;1453;42.708;23.282;2022-11-14T00:25:06;5.60;99.90
2889;DHT22;1453;42.708;23.282;2022-11-14T00:27:32;5.70;99.90
2889;DHT22;1453;42.708;23.282;2022-11-14T00:29:58;5.60;99.90
2889;DHT22;1453;42.708;23.282;2022-11-14T00:32:24;5.50;99.90
2889;DHT22;1453;42.708;23.282;2022-11-14T00:34:50;5.40;99.90
2889;DHT22;1453;42.708;23.282;2022-11-14T00:37:15;5.40;99.90
2889;DHT22;1453;42.708;23.282;2022-11-14T00:39:41;5.50;99.90
2889;DHT22;1453;42.708;23.282;2022-11-14T00:42:07;5.40;99.90
2889;DHT22;1453;42.708;23.282;2022-11-14T00:44:33;5.10;99.90
2889;DHT22;1453;42.708;23.282;2022-11-14T00:46:58;4.90;99.90
2889;DHT22;1453;42.708;23.282;2022-11-14T00:49:24;5.10;99.90
2889;DHT22;1453;42.708;23.282;2022-11-14T00:51:50;5.30;99.90
2889;DHT22;1453;42.708;23.282;2022-11-14T00:54:16;5.50;99.90
2889;DHT22;1453;42.708;23.282;2022-11-14T00:56:41;5.50;99.90
2889;DHT22;1453;42.708;23.282;2022-11-14T00:59:07;5.50;99.90
2889;DHT22;1453;42.708;23.282;2022-11-14T01:01:33;5.60;99.90
2889;DHT22;1453;42.708;23.282;2022-11-14T01:03:59;5.70;99.90
2889;DHT22;1453;42.708;23.282;2022-11-14T01:06:24;5.60;99.90
2889;DHT22;1453;42.708;23.282;2022-11-14T01:08:51;5.60;99.90
2889;DHT22;1453;42.708;23.282;2022-11-14T01:11:19;5.60;99.90
2889;DHT22;1453;42.708;23.282;2022-11-14T01:13:47;5.50;99.90
2889;DHT22;1453;42.708;23.282;2022-11-14T01:16:12;5.40;99.90
2889;DHT22;1453;42.708;23.282;2022-11-14T01:18:39;5.10;99.90
2889;DHT22;1453;42.708;23.282;2022-11-14T01:21:10;5.00;99.90
2889;DHT22;1453;42.708;23.282;2022-11-14T01:23:37;5.00;99.90
2889;DHT22;1453;42.708;23.282;2022-11-14T01:26:06;4.90;99.90
2889;DHT22;1453;42.708;23.282;2022-11-14T01:28:34;4.80;99.90
2889;DHT22;1453;42.708;23.282;2022-11-14T01:31:27;4.70;99.90
2889;DHT22;1453;42.708;23.282;2022-11-14T01:33:53;4.70;99.90
2889;DHT22;1453;42.708;23.282;2022-11-14T01:36:19;4.80;99.90
2889;DHT22;1453;42.708;23.282;2022-11-14T01:38:46;4.70;99.90
2889;DHT22;1453;42.708;23.282;2022-11-14T01:41:16;4.50;99.90
2889;DHT22;1453;42.708;23.282;2022-11-14T01:43:42;4.60;99.90
2889;DHT22;1453;42.708;23.282;2022-11-14T01:48:57;4.50;99.90
2889;DHT22;1453;42.708;23.282;2022-11-14T01:51:30;4.30;99.90
2889;DHT22;1453;42.708;23.282;2022-11-14T01:54:11;3.80;99.90
2889;DHT22;1453;42.708;23.282;2022-11-14T01:56:47;3.80;99.90
2889;DHT22;1453;42.708;23.282;2022-11-14T01:59:20;3.60;99.90
2889;DHT22;1453;42.708;23.282;2022-11-14T02:01:50;3.50;99.90
2889;DHT22;1453;42.708;23.282;2022-11-14T02:04:21;3.50;99.90
2889;DHT22;1453;42.708;23.282;2022-11-14T02:06:53;3.60;99.90
2889;DHT22;1453;42.708;23.282;2022-11-14T02:09:21;3.70;99.90
2889;DHT22;1453;42.708;23.282;2022-11-14T02:11:48;3.60;99.90
2889;DHT22;1453;42.708;23.282;2022-11-14T02:14:14;3.50;99.90
2889;DHT22;1453;42.708;23.282;2022-11-14T02:16:41;3.40;99.90
2889;DHT22;1453;42.708;23.282;2022-11-14T02:19:08;3.10;99.90
2889;DHT22;1453;42.708;23.282;2022-11-14T02:21:34;3.20;99.90
2889;DHT22;1453;42.708;23.282;2022-11-14T02:24:00;3.30;99.90
2889;DHT22;1453;42.708;23.282;2022-11-14T02:26:26;3.20;99.90
2889;DHT22;1453;42.708;23.282;2022-11-14T02:28:52;3.20;99.90
2889;DHT22;1453;42.708;23.282;2022-11-14T02:31:17;3.20;99.90
2889;DHT22;1453;42.708;23.282;2022-11-14T02:33:43;3.30;99.90
2889;DHT22;1453;42.708;23.282;2022-11-14T02:36:09;3.30;99.90
2889;DHT22;1453;42.708;23.282;2022-11-14T02:38:35;3.10;99.90
2889;DHT22;1453;42.708;23.282;2022-11-14T02:41:01;3.20;99.90
2889;DHT22;1453;42.708;23.282;2022-11-14T02:43:27;3.30;99.90
2889;DHT22;1453;42.708;23.282;2022-11-14T02:45:53;3.20;99.90
2889;DHT22;1453;42.708;23.282;2022-11-14T02:48:19;3.10;99.90
2889;DHT22;1453;42.708;23.282;2022-11-14T02:50:47;3.00;99.90
2889;DHT22;1453;42.708;23.282;2022-11-14T02:53:14;3.00;99.90
2889;DHT22;1453;42.708;23.282;2022-11-14T02:55:39;3.00;99.90
2889;DHT22;1453;42.708;23.282;2022-11-14T02:58:05;2.80;99.90
2889;DHT22;1453;42.708;23.282;2022-11-14T03:00:32;2.80;99.90
2889;DHT22;1453;42.708;23.282;2022-11-14T03:02:58;2.60;99.90
2889;DHT22;1453;42.708;23.282;2022-11-14T03:05:23;2.60;99.90
2889;DHT22;1453;42.708;23.282;2022-11-14T03:07:54;2.70;99.90
2889;DHT22;1453;42.708;23.282;2022-11-14T03:10:21;2.80;99.90
2889;DHT22;1453;42.708;23.282;2022-11-14T03:12:51;2.70;99.90
2889;DHT22;1453;42.708;23.282;2022-11-14T03:15:18;2.50;99.90
2889;DHT22;1453;42.708;23.282;2022-11-14T03:17:43;2.60;99.90
2889;DHT22;1453;42.708;23.282;2022-11-14T03:20:09;2.40;99.90
2889;DHT22;1453;42.708;23.282;2022-11-14T03:22:35;2.50;99.90
2889;DHT22;1453;42.708;23.282;2022-11-14T03:25:01;2.50;99.90
2889;DHT22;1453;42.708;23.282;2022-11-14T03:27:27;2.40;99.90
2889;DHT22;1453;42.708;23.282;2022-11-14T03:29:52;2.40;99.90
2889;DHT22;1453;42.708;23.282;2022-11-14T03:32:18;2.40;99.90
2889;DHT22;1453;42.708;23.282;2022-11-14T03:34:44;2.60;99.90
2889;DHT22;1453;42.708;23.282;2022-11-14T03:37:10;2.90;99.90
2889;DHT22;1453;42.708;23.282;2022-11-14T03:39:35;3.10;99.90
2889;DHT22;1453;42.708;23.282;2022-11-14T03:42:01;3.20;99.90
2889;DHT22;1453;42.708;23.282;2022-11-14T03:44:27;3.00;99.90
2889;DHT22;1453;42.708;23.282;2022-11-14T03:46:53;3.20;99.90
2889;DHT22;1453;42.708;23.282;2022-11-14T03:49:19;3.10;99.90
2889;DHT22;1453;42.708;23.282;2022-11-14T03:51:45;3.10;99.90
2889;DHT22;1453;42.708;23.282;2022-11-14T03:54:10;3.00;99.90
2889;DHT22;1453;42.708;23.282;2022-11-14T03:56:36;3.10;99.90
2889;DHT22;1453;42.708;23.282;2022-11-14T03:59:02;3.20;99.90
2889;DHT22;1453;42.708;23.282;2022-11-14T04:01:28;3.40;99.90
2889;DHT22;1453;42.708;23.282;2022-11-14T04:03:54;3.50;99.90
2889;DHT22;1453;42.708;23.282;2022-11-14T04:06:20;3.60;99.90
2889;DHT22;1453;42.708;23.282;2022-11-14T04:08:46;3.40;99.90
2889;DHT22;1453;42.708;23.282;2022-11-14T04:11:12;3.30;99.90
2889;DHT22;1453;42.708;23.282;2022-11-14T04:13:37;3.20;99.90
2889;DHT22;1453;42.708;23.282;2022-11-14T04:16:03;3.30;99.90
2889;DHT22;1453;42.708;23.282;2022-11-14T04:18:29;3.20;99.90
2889;DHT22;1453;42.708;23.282;2022-11-14T04:20:55;3.20;99.90
2889;DHT22;1453;42.708;23.282;2022-11-14T04:23:21;3.10;99.90
2889;DHT22;1453;42.708;23.282;2022-11-14T04:25:47;3.10;99.90
2889;DHT22;1453;42.708;23.282;2022-11-14T04:28:13;3.30;99.90
2889;DHT22;1453;42.708;23.282;2022-11-14T04:30:38;3.30;99.90
2889;DHT22;1453;42.708;23.282;2022-11-14T04:33:05;3.40;99.90
2889;DHT22;1453;42.708;23.282;2022-11-14T04:35:31;3.40;99.90
2889;DHT22;1453;42.708;23.282;2022-11-14T04:37:56;3.50;99.90
2889;DHT22;1453;42.708;23.282;2022-11-14T04:40:22;3.60;99.90
2889;DHT22;1453;42.708;23.282;2022-11-14T04:42:48;3.70;99.90
2889;DHT22;1453;42.708;23.282;2022-11-14T04:45:14;4.00;99.90
2889;DHT22;1453;42.708;23.282;2022-11-14T04:47:43;3.90;99.90
2889;DHT22;1453;42.708;23.282;2022-11-14T04:50:09;4.00;99.90
2889;DHT22;1453;42.708;23.282;2022-11-14T04:52:35;4.10;99.90
2889;DHT22;1453;42.708;23.282;2022-11-14T04:55:01;4.20;99.90
2889;DHT22;1453;42.708;23.282;2022-11-14T04:57:27;4.30;99.90
2889;DHT22;1453;42.708;23.282;2022-11-14T04:59:53;4.20;99.90
2889;DHT22;1453;42.708;23.282;2022-11-14T05:02:18;4.20;99.90
2889;DHT22;1453;42.708;23.282;2022-11-14T05:04:44;4.20;99.90
2889;DHT22;1453;42.708;23.282;2022-11-14T05:07:12;4.20;99.90
2889;DHT22;1453;42.708;23.282;2022-11-14T05:09:38;4.20;99.90
2889;DHT22;1453;42.708;23.282;2022-11-14T05:12:04;4.10;99.90
2889;DHT22;1453;42.708;23.282;2022-11-14T05:14:30;4.20;99.90
2889;DHT22;1453;42.708;23.282;2022-11-14T05:16:57;4.00;99.90
2889;DHT22;1453;42.708;23.282;2022-11-14T05:19:23;4.00;99.90
2889;DHT22;1453;42.708;23.282;2022-11-14T05:21:49;3.90;99.90
2889;DHT22;1453;42.708;23.282;2022-11-14T05:24:15;4.00;99.90
2889;DHT22;1453;42.708;23.282;2022-11-14T05:26:40;3.90;99.90
2889;DHT22;1453;42.708;23.282;2022-11-14T05:29:06;4.00;99.90
2889;DHT22;1453;42.708;23.282;2022-11-14T05:31:32;3.70;99.90
2889;DHT22;1453;42.708;23.282;2022-11-14T05:33:58;3.60;99.90
2889;DHT22;1453;42.708;23.282;2022-11-14T05:36:23;3.60;99.90
2889;DHT22;1453;42.708;23.282;2022-11-14T05:38:49;3.80;99.90
2889;DHT22;1453;42.708;23.282;2022-11-14T05:41:17;3.60;99.90
2889;DHT22;1453;42.708;23.282;2022-11-14T05:43:46;3.80;99.90
2889;DHT22;1453;42.708;23.282;2022-11-14T05:46:13;3.70;99.90
2889;DHT22;1453;42.708;23.282;2022-11-14T05:48:40;3.70;99.90
2889;DHT22;1453;42.708;23.282;2022-11-14T05:51:08;3.80;99.90
2889;DHT22;1453;42.708;23.282;2022-11-14T05:53:36;3.70;99.90
2889;DHT22;1453;42.708;23.282;2022-11-14T05:56:04;3.60;99.90
2889;DHT22;1453;42.708;23.282;2022-11-14T05:58:33;3.60;99.90
2889;DHT22;1453;42.708;23.282;2022-11-14T06:01:05;3.30;99.90
2889;DHT22;1453;42.708;23.282;2022-11-14T06:03:40;3.50;99.90
2889;DHT22;1453;42.708;23.282;2022-11-14T06:06:09;3.60;99.90
2889;DHT22;1453;42.708;23.282;2022-11-14T06:08:36;3.50;99.90
2889;DHT22;1453;42.708;23.282;2022-11-14T06:11:12;3.50;99.90
2889;DHT22;1453;42.708;23.282;2022-11-14T06:13:40;3.70;99.90
2889;DHT22;1453;42.708;23.282;2022-11-14T06:16:09;3.60;99.90
2889;DHT22;1453;42.708;23.282;2022-11-14T06:18:37;3.60;99.90
2889;DHT22;1453;42.708;23.282;2022-11-14T06:21:06;3.20;99.90
2889;DHT22;1453;42.708;23.282;2022-11-14T06:23:39;3.30;99.90
2889;DHT22;1453;42.708;23.282;2022-11-14T06:26:09;3.40;99.90
2889;DHT22;1453;42.708;23.282;2022-11-14T06:28:49;3.50;99.90
2889;DHT22;1453;42.708;23.282;2022-11-14T06:31:16;3.70;99.90
2889;DHT22;1453;42.708;23.282;2022-11-14T06:33:43;3.70;99.90
2889;DHT22;1453;42.708;23.282;2022-11-14T06:36:10;3.80;99.90
2889;DHT22;1453;42.708;23.282;2022-11-14T06:38:37;3.90;99.90
2889;DHT22;1453;42.708;23.282;2022-11-14T06:41:09;3.90;99.90
2889;DHT22;1453;42.708;23.282;2022-11-14T06:43:38;3.80;99.90
2889;DHT22;1453;42.708;23.282;2022-11-14T06:46:07;3.80;99.90
2889;DHT22;1453;42.708;23.282;2022-11-14T06:48:34;4.10;99.90
2889;DHT22;1453;42.708;23.282;2022-11-14T06:51:00;4.10;99.90
2889;DHT22;1453;42.708;23.282;2022-11-14T06:53:29;4.40;99.90
2889;DHT22;1453;42.708;23.282;2022-11-14T06:56:01;4.50;99.90
2889;DHT22;1453;42.708;23.282;2022-11-14T06:58:35;4.40;99.90
2889;DHT22;1453;42.708;23.282;2022-11-14T07:01:32;4.60;99.90
2889;DHT22;1453;42.708;23.282;2022-11-14T07:03:58;4.60;99.90
2889;DHT22;1453;42.708;23.282;2022-11-14T07:06:27;4.70;99.90
2889;DHT22;1453;42.708;23.282;2022-11-14T07:08:55;4.70;99.90
2889;DHT22;1453;42.708;23.282;2022-11-14T07:11:24;4.80;99.90
2889;DHT22;1453;42.708;23.282;2022-11-14T07:13:57;4.80;99.90
2889;DHT22;1453;42.708;23.282;2022-11-14T07:16:29;4.70;99.90
2889;DHT22;1453;42.708;23.282;2022-11-14T07:19:00;4.70;99.90
2889;DHT22;1453;42.708;23.282;2022-11-14T07:21:29;4.70;99.90
2889;DHT22;1453;42.708;23.282;2022-11-14T07:23:56;4.50;99.90
2889;DHT22;1453;42.708;23.282;2022-11-14T07:26:22;4.50;99.90
2889;DHT22;1453;42.708;23.282;2022-11-14T07:28:48;4.60;99.90
2889;DHT22;1453;42.708;23.282;2022-11-14T07:31:16;4.50;99.90
2889;DHT22;1453;42.708;23.282;2022-11-14T07:33:43;4.50;99.90
2889;DHT22;1453;42.708;23.282;2022-11-14T07:36:10;4.30;99.90
2889;DHT22;1453;42.708;23.282;2022-11-14T07:38:37;4.40;99.90
2889;DHT22;1453;42.708;23.282;2022-11-14T07:41:12;4.60;99.90
2889;DHT22;1453;42.708;23.282;2022-11-14T07:43:39;4.60;99.90
2889;DHT22;1453;42.708;23.282;2022-11-14T07:46:16;4.60;99.90
2889;DHT22;1453;42.708;23.282;2022-11-14T07:48:43;4.70;99.90
2889;DHT22;1453;42.708;23.282;2022-11-14T07:51:14;4.90;99.90
2889;DHT22;1453;42.708;23.282;2022-11-14T07:53:41;5.00;99.90
2889;DHT22;1453;42.708;23.282;2022-11-14T07:56:08;5.10;99.90
2889;DHT22;1453;42.708;23.282;2022-11-14T07:58:35;5.10;99.90
2889;DHT22;1453;42.708;23.282;2022-11-14T08:01:02;4.80;99.90
2889;DHT22;1453;42.708;23.282;2022-11-14T08:03:29;4.90;99.90
2889;DHT22;1453;42.708;23.282;2022-11-14T08:06:06;5.00;99.90
2889;DHT22;1453;42.708;23.282;2022-11-14T08:08:36;5.10;99.90
2889;DHT22;1453;42.708;23.282;2022-11-14T08:11:02;5.10;99.90
2889;DHT22;1453;42.708;23.282;2022-11-14T08:13:29;4.80;99.90
2889;DHT22;1453;42.708;23.282;2022-11-14T08:15:56;4.40;99.90
2889;DHT22;1453;42.708;23.282;2022-11-14T08:18:24;4.30;99.90
2889;DHT22;1453;42.708;23.282;2022-11-14T08:20:50;4.30;99.90
2889;DHT22;1453;42.708;23.282;2022-11-14T08:23:16;4.50;99.90
2889;DHT22;1453;42.708;23.282;2022-11-14T08:25:41;4.30;99.90
2889;DHT22;1453;42.708;23.282;2022-11-14T08:28:08;4.30;99.90
2889;DHT22;1453;42.708;23.282;2022-11-14T08:30:34;4.30;99.90
2889;DHT22;1453;42.708;23.282;2022-11-14T08:33:02;4.80;99.90
2889;DHT22;1453;42.708;23.282;2022-11-14T08:35:28;5.10;99.90
2889;DHT22;1453;42.708;23.282;2022-11-14T08:37:54;5.40;99.90
2889;DHT22;1453;42.708;23.282;2022-11-14T08:40:20;5.80;99.90
2889;DHT22;1453;42.708;23.282;2022-11-14T08:42:45;6.00;99.90
2889;DHT22;1453;42.708;23.282;2022-11-14T08:45:11;6.00;99.90
2889;DHT22;1453;42.708;23.282;2022-11-14T08:47:37;6.10;99.90
2889;DHT22;1453;42.708;23.282;2022-11-14T08:50:03;6.10;99.90
2889;DHT22;1453;42.708;23.282;2022-11-14T08:52:29;6.20;99.90
2889;DHT22;1453;42.708;23.282;2022-11-14T08:54:55;6.00;99.90
2889;DHT22;1453;42.708;23.282;2022-11-14T08:57:21;6.10;99.90
2889;DHT22;1453;42.708;23.282;2022-11-14T08:59:46;6.20;99.90
2889;DHT22;1453;42.708;23.282;2022-11-14T09:02:13;5.90;99.90
2889;DHT22;1453;42.708;23.282;2022-11-14T09:04:38;6.00;99.90
2889;DHT22;1453;42.708;23.282;2022-11-14T09:07:05;6.10;99.90
2889;DHT22;1453;42.708;23.282;2022-11-14T09:09:31;6.30;99.90
2889;DHT22;1453;42.708;23.282;2022-11-14T09:11:57;6.40;99.90
2889;DHT22;1453;42.708;23.282;2022-11-14T09:14:23;6.40;99.90
2889;DHT22;1453;42.708;23.282;2022-11-14T09:16:49;6.60;99.90
2889;DHT22;1453;42.708;23.282;2022-11-14T09:19:15;6.70;99.90
2889;DHT22;1453;42.708;23.282;2022-11-14T09:21:40;6.90;99.90
2889;DHT22;1453;42.708;23.282;2022-11-14T09:24:06;7.10;99.90
2889;DHT22;1453;42.708;23.282;2022-11-14T09:26:33;7.10;99.90
2889;DHT22;1453;42.708;23.282;2022-11-14T09:28:59;7.20;99.90
2889;DHT22;1453;42.708;23.282;2022-11-14T09:31:26;7.30;99.90
2889;DHT22;1453;42.708;23.282;2022-11-14T09:33:52;7.30;99.90
2889;DHT22;1453;42.708;23.282;2022-11-14T09:36:18;7.50;99.90
2889;DHT22;1453;42.708;23.282;2022-11-14T09:38:44;7.60;99.90
2889;DHT22;1453;42.708;23.282;2022-11-14T09:41:25;7.60;99.90
2889;DHT22;1453;42.708;23.282;2022-11-14T09:46:42;7.90;99.90
2889;DHT22;1453;42.708;23.282;2022-11-14T09:49:31;8.40;99.90
2889;DHT22;1453;42.708;23.282;2022-11-14T09:52:24;9.20;99.90
2889;DHT22;1453;42.708;23.282;2022-11-14T09:55:12;10.40;99.90
2889;DHT22;1453;42.708;23.282;2022-11-14T09:57:42;11.30;99.90
2889;DHT22;1453;42.708;23.282;2022-11-14T10:11:22;14.30;99.90
2889;DHT22;1453;42.708;23.282;2022-11-14T10:22:47;15.50;94.40
2889;DHT22;1453;42.708;23.282;2022-11-14T10:25:37;15.90;92.70
2889;DHT22;1453;42.708;23.282;2022-11-14T10:28:28;16.20;91.70
2889;DHT22;1453;42.708;23.282;2022-11-14T10:34:14;17.20;87.60
2889;DHT22;1453;42.708;23.282;2022-11-14T10:42:44;15.90;91.50
2889;DHT22;1453;42.708;23.282;2022-11-14T10:45:22;17.30;87.50
2889;DHT22;1453;42.708;23.282;2022-11-14T10:48:14;17.90;82.40
2889;DHT22;1453;42.708;23.282;2022-11-14T10:50:50;17.70;82.20
2889;DHT22;1453;42.708;23.282;2022-11-14T10:55:58;19.00;77.70
2889;DHT22;1453;42.708;23.282;2022-11-14T10:58:24;18.20;75.90
2889;DHT22;1453;42.708;23.282;2022-11-14T11:00:50;17.90;79.20
2889;DHT22;1453;42.708;23.282;2022-11-14T11:03:16;18.70;76.50
2889;DHT22;1453;42.708;23.282;2022-11-14T11:05:49;18.60;76.50
2889;DHT22;1453;42.708;23.282;2022-11-14T11:08:22;18.90;75.80
2889;DHT22;1453;42.708;23.282;2022-11-14T11:11:13;18.30;76.80
2889;DHT22;1453;42.708;23.282;2022-11-14T11:13:57;18.10;76.60
2889;DHT22;1453;42.708;23.282;2022-11-14T11:16:26;18.50;76.90
2889;DHT22;1453;42.708;23.282;2022-11-14T11:18:53;18.00;77.70
2889;DHT22;1453;42.708;23.282;2022-11-14T11:21:21;18.10;76.30
2889;DHT22;1453;42.708;23.282;2022-11-14T11:26:28;18.60;74.40
2889;DHT22;1453;42.708;23.282;2022-11-14T11:31:55;18.70;75.30
2889;DHT22;1453;42.708;23.282;2022-11-14T11:34:28;19.10;73.60
2889;DHT22;1453;42.708;23.282;2022-11-14T11:37:18;19.60;71.80
2889;DHT22;1453;42.708;23.282;2022-11-14T11:40:05;19.60;71.50
2889;DHT22;1453;42.708;23.282;2022-11-14T11:42:49;19.80;71.10
2889;DHT22;1453;42.708;23.282;2022-11-14T11:45:20;20.30;69.40
2889;DHT22;1453;42.708;23.282;2022-11-14T11:50:26;19.70;70.10
2889;DHT22;1453;42.708;23.282;2022-11-14T11:53:42;19.90;69.90
2889;DHT22;1453;42.708;23.282;2022-11-14T11:55:52;19.90;69.50
2889;DHT22;1453;42.708;23.282;2022-11-14T12:00:55;19.40;70.70
2889;DHT22;1453;42.708;23.282;2022-11-14T12:03:25;19.70;70.00
2889;DHT22;1453;42.708;23.282;2022-11-14T12:06:01;20.00;69.60
2889;DHT22;1453;42.708;23.282;2022-11-14T12:11:24;20.40;68.10
2889;DHT22;1453;42.708;23.282;2022-11-14T12:20:26;20.90;66.70
2889;DHT22;1453;42.708;23.282;2022-11-14T12:32:09;19.60;67.80
2889;DHT22;1453;42.708;23.282;2022-11-14T12:34:44;20.00;67.60
2889;DHT22;1453;42.708;23.282;2022-11-14T12:37:35;20.40;66.90
2889;DHT22;1453;42.708;23.282;2022-11-14T12:40:05;20.40;66.40
2889;DHT22;1453;42.708;23.282;2022-11-14T12:42:32;20.20;66.10
2889;DHT22;1453;42.708;23.282;2022-11-14T12:44:59;20.60;66.90
2889;DHT22;1453;42.708;23.282;2022-11-14T12:47:26;21.20;65.50
2889;DHT22;1453;42.708;23.282;2022-11-14T12:58:22;20.80;65.70
2889;DHT22;1453;42.708;23.282;2022-11-14T13:04:04;21.50;64.90
2889;DHT22;1453;42.708;23.282;2022-11-14T13:11:52;20.80;63.60
2889;DHT22;1453;42.708;23.282;2022-11-14T13:15:20;21.00;64.60
2889;DHT22;1453;42.708;23.282;2022-11-14T13:18:26;20.60;65.50
2889;DHT22;1453;42.708;23.282;2022-11-14T13:21:37;20.40;65.60
2889;DHT22;1453;42.708;23.282;2022-11-14T13:24:16;21.10;64.40
2889;DHT22;1453;42.708;23.282;2022-11-14T13:26:51;21.20;64.10
2889;DHT22;1453;42.708;23.282;2022-11-14T13:32:10;21.70;62.60
2889;DHT22;1453;42.708;23.282;2022-11-14T13:34:57;21.40;62.90
2889;DHT22;1453;42.708;23.282;2022-11-14T13:40:58;20.10;65.60
2889;DHT22;1453;42.708;23.282;2022-11-14T13:52:16;19.40;66.20
2889;DHT22;1453;42.708;23.282;2022-11-14T13:54:48;19.60;66.80
2889;DHT22;1453;42.708;23.282;2022-11-14T14:00:17;19.10;67.10
2889;DHT22;1453;42.708;23.282;2022-11-14T14:03:26;18.70;67.50
2889;DHT22;1453;42.708;23.282;2022-11-14T14:15:18;18.70;69.10
2889;DHT22;1453;42.708;23.282;2022-11-14T14:18:04;18.60;68.80
2889;DHT22;1453;42.708;23.282;2022-11-14T14:20:44;18.40;69.40
2889;DHT22;1453;42.708;23.282;2022-11-14T14:23:43;17.50;70.10
2889;DHT22;1453;42.708;23.282;2022-11-14T14:26:52;17.20;72.70
2889;DHT22;1453;42.708;23.282;2022-11-14T14:29:44;17.10;72.90
2889;DHT22;1453;42.708;23.282;2022-11-14T14:32:16;17.20;73.50
2889;DHT22;1453;42.708;23.282;2022-11-14T14:34:43;16.70;73.80
2889;DHT22;1453;42.708;23.282;2022-11-14T14:37:18;16.60;75.40
2889;DHT22;1453;42.708;23.282;2022-11-14T14:39:59;16.50;75.80
2889;DHT22;1453;42.708;23.282;2022-11-14T14:42:36;16.30;76.50
2889;DHT22;1453;42.708;23.282;2022-11-14T14:45:06;15.80;77.40
2889;DHT22;1453;42.708;23.282;2022-11-14T14:47:41;15.10;80.10
2889;DHT22;1453;42.708;23.282;2022-11-14T14:50:36;14.40;84.50
2889;DHT22;1453;42.708;23.282;2022-11-14T14:53:05;14.10;89.30
2889;DHT22;1453;42.708;23.282;2022-11-14T14:55:34;13.80;91.50
2889;DHT22;1453;42.708;23.282;2022-11-14T14:58:13;13.60;93.60
2889;DHT22;1453;42.708;23.282;2022-11-14T15:01:14;13.60;95.00
2889;DHT22;1453;42.708;23.282;2022-11-14T15:03:47;13.50;95.80
2889;DHT22;1453;42.708;23.282;2022-11-14T15:06:36;13.20;97.60
2889;DHT22;1453;42.708;23.282;2022-11-14T15:09:26;12.90;99.90
2889;DHT22;1453;42.708;23.282;2022-11-14T15:11:58;12.80;99.90
2889;DHT22;1453;42.708;23.282;2022-11-14T15:14:31;12.70;99.90
2889;DHT22;1453;42.708;23.282;2022-11-14T15:17:00;12.50;99.90
2889;DHT22;1453;42.708;23.282;2022-11-14T15:19:33;12.40;99.90
2889;DHT22;1453;42.708;23.282;2022-11-14T15:24:42;12.20;99.90
2889;DHT22;1453;42.708;23.282;2022-11-14T15:27:18;12.20;99.90
2889;DHT22;1453;42.708;23.282;2022-11-14T15:29:50;12.20;99.90
2889;DHT22;1453;42.708;23.282;2022-11-14T15:32:19;12.30;99.90
2889;DHT22;1453;42.708;23.282;2022-11-14T15:35:07;12.20;99.90
2889;DHT22;1453;42.708;23.282;2022-11-14T15:40:37;12.10;99.90
2889;DHT22;1453;42.708;23.282;2022-11-14T15:46:41;11.90;99.90
2889;DHT22;1453;42.708;23.282;2022-11-14T15:51:55;11.50;99.90
2889;DHT22;1453;42.708;23.282;2022-11-14T15:54:33;11.20;99.90
2889;DHT22;1453;42.708;23.282;2022-11-14T15:57:04;11.20;99.90
2889;DHT22;1453;42.708;23.282;2022-11-14T15:59:37;11.30;99.90
2889;DHT22;1453;42.708;23.282;2022-11-14T16:04:43;11.40;99.90
2889;DHT22;1453;42.708;23.282;2022-11-14T16:07:11;11.30;99.90
2889;DHT22;1453;42.708;23.282;2022-11-14T16:09:38;11.20;99.90
2889;DHT22;1453;42.708;23.282;2022-11-14T16:12:04;11.20;99.90
2889;DHT22;1453;42.708;23.282;2022-11-14T16:14:30;11.10;99.90
2889;DHT22;1453;42.708;23.282;2022-11-14T16:16:56;10.70;99.90
2889;DHT22;1453;42.708;23.282;2022-11-14T16:19:22;10.50;99.90
2889;DHT22;1453;42.708;23.282;2022-11-14T16:21:48;10.60;99.90
2889;DHT22;1453;42.708;23.282;2022-11-14T16:24:17;10.70;99.90
2889;DHT22;1453;42.708;23.282;2022-11-14T16:26:45;10.60;99.90
2889;DHT22;1453;42.708;23.282;2022-11-14T16:29:11;10.40;99.90
2889;DHT22;1453;42.708;23.282;2022-11-14T16:31:37;10.30;99.90
2889;DHT22;1453;42.708;23.282;2022-11-14T16:34:04;9.90;99.90
2889;DHT22;1453;42.708;23.282;2022-11-14T16:36:30;9.30;99.90
2889;DHT22;1453;42.708;23.282;2022-11-14T16:39:01;8.90;99.90
2889;DHT22;1453;42.708;23.282;2022-11-14T16:41:28;8.60;99.90
2889;DHT22;1453;42.708;23.282;2022-11-14T16:43:55;8.50;99.90
2889;DHT22;1453;42.708;23.282;2022-11-14T16:46:22;8.60;99.90
2889;DHT22;1453;42.708;23.282;2022-11-14T16:48:49;8.70;99.90
2889;DHT22;1453;42.708;23.282;2022-11-14T16:51:15;9.00;99.90
2889;DHT22;1453;42.708;23.282;2022-11-14T16:53:41;9.30;99.90
2889;DHT22;1453;42.708;23.282;2022-11-14T16:56:10;9.40;99.90
2889;DHT22;1453;42.708;23.282;2022-11-14T16:58:37;9.60;99.90
2889;DHT22;1453;42.708;23.282;2022-11-14T17:01:07;9.50;99.90
2889;DHT22;1453;42.708;23.282;2022-11-14T17:03:39;9.50;99.90
2889;DHT22;1453;42.708;23.282;2022-11-14T17:06:07;9.60;99.90
2889;DHT22;1453;42.708;23.282;2022-11-14T17:08:35;9.50;99.90
2889;DHT22;1453;42.708;23.282;2022-11-14T17:11:07;9.60;99.90
2889;DHT22;1453;42.708;23.282;2022-11-14T17:13:35;9.60;99.90
2889;DHT22;1453;42.708;23.282;2022-11-14T17:16:02;9.60;99.90
2889;DHT22;1453;42.708;23.282;2022-11-14T17:18:29;9.60;99.90
2889;DHT22;1453;42.708;23.282;2022-11-14T17:20:55;9.60;99.90
2889;DHT22;1453;42.708;23.282;2022-11-14T17:23:20;9.50;99.90
2889;DHT22;1453;42.708;23.282;2022-11-14T17:25:46;9.40;99.90
2889;DHT22;1453;42.708;23.282;2022-11-14T17:28:12;9.50;99.90
2889;DHT22;1453;42.708;23.282;2022-11-14T17:30:41;9.70;99.90
2889;DHT22;1453;42.708;23.282;2022-11-14T17:33:07;9.60;99.90
2889;DHT22;1453;42.708;23.282;2022-11-14T17:35:34;9.70;99.90
2889;DHT22;1453;42.708;23.282;2022-11-14T17:38:00;9.70;99.90
2889;DHT22;1453;42.708;23.282;2022-11-14T17:40:27;9.60;99.90
2889;DHT22;1453;42.708;23.282;2022-11-14T17:42:52;9.40;99.90
2889;DHT22;1453;42.708;23.282;2022-11-14T17:45:18;9.40;99.90
2889;DHT22;1453;42.708;23.282;2022-11-14T17:47:44;9.30;99.90
2889;DHT22;1453;42.708;23.282;2022-11-14T17:50:10;9.30;99.90
2889;DHT22;1453;42.708;23.282;2022-11-14T17:52:36;9.30;99.90
2889;DHT22;1453;42.708;23.282;2022-11-14T17:55:02;9.10;99.90
2889;DHT22;1453;42.708;23.282;2022-11-14T17:57:28;8.50;99.90
2889;DHT22;1453;42.708;23.282;2022-11-14T17:59:54;8.20;99.90
2889;DHT22;1453;42.708;23.282;2022-11-14T18:02:20;8.30;99.90
2889;DHT22;1453;42.708;23.282;2022-11-14T18:04:46;8.00;99.90
2889;DHT22;1453;42.708;23.282;2022-11-14T18:07:13;7.80;99.90
2889;DHT22;1453;42.708;23.282;2022-11-14T18:09:40;7.50;99.90
2889;DHT22;1453;42.708;23.282;2022-11-14T18:12:06;7.30;99.90
2889;DHT22;1453;42.708;23.282;2022-11-14T18:14:31;7.30;99.90
2889;DHT22;1453;42.708;23.282;2022-11-14T18:16:57;7.20;99.90
2889;DHT22;1453;42.708;23.282;2022-11-14T18:19:23;7.30;99.90